createdAt,value
2019-04-23T00:00:45.611Z,0.00
2019-04-23T00:01:54.383Z,0.00
2019-04-23T00:02:53.460Z,0.00
2019-04-23T00:03:46.998Z,0.00
2019-04-23T00:04:45.277Z,0.00
2019-04-23T00:05:48.215Z,0.00
2019-04-23T00:07:03.508Z,0.00
2019-04-23T00:07:49.867Z,0.00
2019-04-23T00:08:49.709Z,0.00
2019-04-23T00:09:47.083Z,0.00
2019-04-23T00:10:45.962Z,0.00
2019-04-23T00:11:45.866Z,0.00
2019-04-23T00:14:55.034Z,0.00
2019-04-23T00:15:51.936Z,0.00
2019-04-23T00:16:44.056Z,0.00
2019-04-23T00:19:50.228Z,0.00
2019-04-23T00:20:47.770Z,0.00
2019-04-23T00:21:45.897Z,0.00
2019-04-23T00:22:53.272Z,0.00
2019-04-23T00:23:52.997Z,0.00
2019-04-23T00:25:12.185Z,0.00
2019-04-23T00:25:53.752Z,0.00
2019-04-23T00:26:44.980Z,0.00
2019-04-23T00:28:54.222Z,0.00
2019-04-23T00:29:53.783Z,0.00
2019-04-23T00:30:50.229Z,0.00
2019-04-23T00:31:44.567Z,0.00
2019-04-23T00:32:51.622Z,0.00
2019-04-23T00:33:43.688Z,0.00
2019-04-23T00:34:47.985Z,0.00
2019-04-23T00:35:43.968Z,0.00
2019-04-23T00:36:47.684Z,0.00
2019-04-23T00:37:40.366Z,0.00
2019-04-23T00:38:44.759Z,0.00
2019-04-23T00:40:46.765Z,0.00
2019-04-23T00:41:44.176Z,0.00
2019-04-23T00:43:51.356Z,0.00
2019-04-23T00:44:47.902Z,0.00
2019-04-23T00:45:44.482Z,0.00
2019-04-23T00:46:50.696Z,0.00
2019-04-23T00:47:48.522Z,0.00
2019-04-23T00:48:51.556Z,0.00
2019-04-23T00:49:53.276Z,0.00
2019-04-23T00:50:52.988Z,0.00
2019-04-23T00:51:42.651Z,0.00
2019-04-23T00:52:46.188Z,0.00
2019-04-23T00:53:47.586Z,0.00
2019-04-23T00:54:48.829Z,0.00
2019-04-23T00:55:46.622Z,0.00
2019-04-23T00:56:46.199Z,0.00
2019-04-23T00:57:43.965Z,0.00
2019-04-23T00:59:55.874Z,0.00
2019-04-23T01:00:45.935Z,0.00
2019-04-23T01:02:48.282Z,0.00
2019-04-23T01:03:47.302Z,0.00
2019-04-23T01:04:47.654Z,0.00
2019-04-23T01:05:45.447Z,0.00
2019-04-23T01:06:47.748Z,0.00
2019-04-23T01:07:44.468Z,0.00
2019-04-23T01:08:45.751Z,0.00
2019-04-23T01:09:45.797Z,0.00
2019-04-23T01:10:51.142Z,0.00
2019-04-23T01:11:46.690Z,0.00
2019-04-23T01:12:51.699Z,0.00
2019-04-23T01:14:38.535Z,0.00
2019-04-23T01:15:45.912Z,0.00
2019-04-23T01:17:05.222Z,0.00
2019-04-23T01:17:49.311Z,0.00
2019-04-23T01:19:45.075Z,0.00
2019-04-23T01:20:44.513Z,0.00
2019-04-23T01:21:24.396Z,0.00
2019-04-23T01:22:23.249Z,0.00
2019-04-23T01:23:28.598Z,0.00
2019-04-23T01:24:25.911Z,0.00
2019-04-23T01:25:34.127Z,0.00
2019-04-23T01:26:42.138Z,0.00
2019-04-23T01:27:51.656Z,0.00
2019-04-23T01:28:49.717Z,0.00
2019-04-23T01:29:50.699Z,0.00
2019-04-23T01:30:53.002Z,0.00
2019-04-23T01:31:58.892Z,0.00
2019-04-23T01:32:48.456Z,0.00
2019-04-23T01:34:11.027Z,0.00
2019-04-23T01:34:58.953Z,0.00
2019-04-23T01:36:05.885Z,0.00
2019-04-23T01:36:48.754Z,0.00
2019-04-23T01:37:49.313Z,0.00
2019-04-23T01:39:52.901Z,0.00
2019-04-23T01:41:01.747Z,0.00
2019-04-23T01:42:45.011Z,0.00
2019-04-23T01:43:47.817Z,0.00
2019-04-23T01:44:54.110Z,0.00
2019-04-23T01:45:47.905Z,0.00
2019-04-23T01:46:51.003Z,0.00
2019-04-23T01:47:50.015Z,0.00
2019-04-23T01:49:58.192Z,0.00
2019-04-23T01:50:58.870Z,0.00
2019-04-23T01:52:52.391Z,0.00
2019-04-23T01:54:52.361Z,0.00
2019-04-23T01:55:46.819Z,0.00
2019-04-23T01:56:50.999Z,0.00
2019-04-23T01:57:58.887Z,0.00
2019-04-23T01:59:55.456Z,0.00
2019-04-23T02:00:47.819Z,0.00
2019-04-23T02:01:50.425Z,0.00
2019-04-23T02:04:58.431Z,0.00
2019-04-23T02:05:48.367Z,0.00
2019-04-23T02:06:52.767Z,0.00
2019-04-23T02:07:53.721Z,0.00
2019-04-23T02:09:48.330Z,0.00
2019-04-23T02:12:06.655Z,0.00
2019-04-23T02:13:51.629Z,0.00
2019-04-23T02:14:50.412Z,0.00
2019-04-23T02:15:47.402Z,0.00
2019-04-23T02:16:50.047Z,0.00
2019-04-23T02:17:53.727Z,0.00
2019-04-23T02:18:50.749Z,0.00
2019-04-23T02:19:51.836Z,0.00
2019-04-23T02:20:48.046Z,0.00
2019-04-23T02:21:52.882Z,0.00
2019-04-23T02:23:01.723Z,0.00
2019-04-23T02:23:50.301Z,0.00
2019-04-23T02:24:49.253Z,0.00
2019-04-23T02:25:52.153Z,0.00
2019-04-23T02:26:50.455Z,0.00
2019-04-23T02:27:55.485Z,0.00
2019-04-23T02:30:08.547Z,0.00
2019-04-23T02:31:57.617Z,0.00
2019-04-23T02:33:10.651Z,0.00
2019-04-23T02:34:09.696Z,0.00
2019-04-23T02:35:02.371Z,0.00
2019-04-23T02:36:54.472Z,0.00
2019-04-23T02:38:03.466Z,0.00
2019-04-23T02:39:57.375Z,0.00
2019-04-23T02:43:06.851Z,0.00
2019-04-23T02:43:59.350Z,0.00
2019-04-23T02:44:53.863Z,0.00
2019-04-23T02:47:03.475Z,0.00
2019-04-23T02:48:03.387Z,0.00
2019-04-23T02:48:59.247Z,0.00
2019-04-23T02:50:12.742Z,0.00
2019-04-23T02:52:57.793Z,0.00
2019-04-23T02:54:21.490Z,0.00
2019-04-23T02:56:51.061Z,0.00
2019-04-23T02:57:54.303Z,0.00
2019-04-23T03:00:11.583Z,0.00
2019-04-23T03:01:15.052Z,0.00
2019-04-23T03:03:04.021Z,0.00
2019-04-23T03:06:12.781Z,0.00
2019-04-23T03:06:55.581Z,0.00
2019-04-23T03:09:53.834Z,0.00
2019-04-23T03:10:59.743Z,0.00
2019-04-23T03:14:07.472Z,0.00
2019-04-23T03:15:00.760Z,0.00
2019-04-23T03:16:03.785Z,0.00
2019-04-23T03:17:59.341Z,0.00
2019-04-23T03:18:53.744Z,0.00
2019-04-23T03:19:58.587Z,0.00
2019-04-23T03:21:07.498Z,0.00
2019-04-23T03:23:10.093Z,0.00
2019-04-23T03:24:55.460Z,0.00
2019-04-23T03:26:15.630Z,0.00
2019-04-23T03:27:50.984Z,0.00
2019-04-23T03:28:57.834Z,0.00
2019-04-23T03:34:34.102Z,0.00
2019-04-23T03:37:58.550Z,0.00
2019-04-23T03:41:02.485Z,0.00
2019-04-23T03:41:53.544Z,0.00
2019-04-23T03:42:57.662Z,0.00
2019-04-23T03:44:57.740Z,0.00
2019-04-23T03:46:55.339Z,0.00
2019-04-23T03:49:55.086Z,0.00
2019-04-23T03:51:01.325Z,0.00
2019-04-23T03:52:23.249Z,0.00
2019-04-23T03:52:44.781Z,0.00
2019-04-23T03:55:56.252Z,0.00
2019-04-23T03:59:55.037Z,0.00
2019-04-23T04:02:20.436Z,0.00
2019-04-23T04:03:02.193Z,0.00
2019-04-23T04:04:45.133Z,0.00
2019-04-23T04:06:03.415Z,0.00
2019-04-23T04:08:58.333Z,5.63
2019-04-23T04:09:51.918Z,5.63
2019-04-23T04:11:11.222Z,5.63
2019-04-23T04:11:45.054Z,5.63
2019-04-23T04:13:06.677Z,11.25
2019-04-23T04:14:04.793Z,11.25
2019-04-23T04:14:56.786Z,11.25
2019-04-23T06:30:56.073Z,399.38
2019-04-23T06:32:55.237Z,405.00
2019-04-23T06:33:59.216Z,410.63
2019-04-23T06:34:54.682Z,416.25
2019-04-23T06:35:54.856Z,421.88
2019-04-23T06:36:50.979Z,421.88
2019-04-23T06:38:12.483Z,421.88
2019-04-23T06:39:02.764Z,427.50
2019-04-23T06:40:58.703Z,433.13
2019-04-23T06:42:53.140Z,438.75
2019-04-23T06:43:58.423Z,433.13
2019-04-23T06:44:51.702Z,433.13
2019-04-23T06:45:49.218Z,438.75
2019-04-23T06:47:56.369Z,444.38
2019-04-23T06:48:46.987Z,455.63
2019-04-23T06:49:54.523Z,444.38
2019-04-23T06:51:00.795Z,450.00
2019-04-23T06:52:02.420Z,450.00
2019-04-23T06:52:50.163Z,450.00
2019-04-23T06:53:49.826Z,455.63
2019-04-23T06:54:56.175Z,461.25
2019-04-23T06:57:00.584Z,472.50
2019-04-23T06:57:48.284Z,472.50
2019-04-23T06:58:48.971Z,472.50
2019-04-23T06:59:52.687Z,472.50
2019-04-23T07:00:55.458Z,478.13
2019-04-23T07:01:59.665Z,472.50
2019-04-23T07:02:58.273Z,478.13
2019-04-23T07:03:55.755Z,478.13
2019-04-23T07:04:58.663Z,466.88
2019-04-23T07:06:03.675Z,472.50
2019-04-23T07:07:52.826Z,472.50
2019-04-23T07:10:52.052Z,478.13
2019-04-23T07:11:47.875Z,483.75
2019-04-23T07:13:03.655Z,489.38
2019-04-23T07:13:57.693Z,489.38
2019-04-23T07:15:55.251Z,495.00
2019-04-23T07:16:52.711Z,506.25
2019-04-23T07:17:51.595Z,500.63
2019-04-23T07:19:48.345Z,489.38
2019-04-23T07:20:50.464Z,495.00
2019-04-23T07:21:51.313Z,495.00
2019-04-23T07:22:59.600Z,500.63
2019-04-23T07:24:52.974Z,506.25
2019-04-23T07:25:59.380Z,511.88
2019-04-23T07:26:42.499Z,511.88
2019-04-23T07:27:49.252Z,517.50
2019-04-23T07:28:53.260Z,517.50
2019-04-23T07:29:56.782Z,523.13
2019-04-23T07:30:55.908Z,523.13
2019-04-23T07:31:54.692Z,528.75
2019-04-23T07:32:52.875Z,534.38
2019-04-23T07:34:59.197Z,540.00
2019-04-23T07:35:51.887Z,540.00
2019-04-23T07:36:48.014Z,545.63
2019-04-23T07:37:54.540Z,551.25
2019-04-23T07:39:01.561Z,551.25
2019-04-23T07:40:07.649Z,551.25
2019-04-23T07:40:46.717Z,556.88
2019-04-23T07:41:56.353Z,551.25
2019-04-23T07:42:52.724Z,556.88
2019-04-23T07:43:54.790Z,551.25
2019-04-23T07:45:57.587Z,556.88
2019-04-23T07:47:05.338Z,562.50
2019-04-23T07:48:03.485Z,568.13
2019-04-23T07:48:48.000Z,573.75
2019-04-23T07:50:00.715Z,573.75
2019-04-23T07:50:52.819Z,579.38
2019-04-23T07:51:54.024Z,585.00
2019-04-23T07:52:58.668Z,590.63
2019-04-23T07:53:53.552Z,596.25
2019-04-23T07:54:58.761Z,601.88
2019-04-23T07:56:53.376Z,596.25
2019-04-23T07:57:59.778Z,601.88
2019-04-23T07:58:46.377Z,607.50
2019-04-23T07:59:56.269Z,613.13
2019-04-23T08:01:52.436Z,618.75
2019-04-23T08:03:01.078Z,624.38
2019-04-23T08:03:57.680Z,630.00
2019-04-23T08:05:44.111Z,635.63
2019-04-23T08:06:52.567Z,641.25
2019-04-23T08:07:52.986Z,646.88
2019-04-23T08:08:50.569Z,652.50
2019-04-23T08:09:53.206Z,658.13
2019-04-23T08:11:03.046Z,663.75
2019-04-23T08:11:54.301Z,663.75
2019-04-23T08:12:54.754Z,669.38
2019-04-23T08:14:00.439Z,675.00
2019-04-23T08:14:55.291Z,680.63
2019-04-23T08:15:47.632Z,686.25
2019-04-23T08:16:48.544Z,697.50
2019-04-23T08:17:53.085Z,703.13
2019-04-23T08:19:57.592Z,708.75
2019-04-23T08:20:57.097Z,720.00
2019-04-23T08:21:58.201Z,720.00
2019-04-23T08:22:57.308Z,731.25
2019-04-23T08:23:56.953Z,748.13
2019-04-23T08:24:55.563Z,742.50
2019-04-23T08:26:03.277Z,748.13
2019-04-23T08:26:55.247Z,748.13
2019-04-23T08:27:48.617Z,753.75
2019-04-23T08:28:59.604Z,759.38
2019-04-23T08:29:58.839Z,765.00
2019-04-23T08:30:52.752Z,770.63
2019-04-23T08:31:52.765Z,770.63
2019-04-23T08:32:55.448Z,770.63
2019-04-23T08:33:57.492Z,776.25
2019-04-23T08:34:56.427Z,781.88
2019-04-23T08:35:55.745Z,781.88
2019-04-23T08:38:50.848Z,798.75
2019-04-23T08:39:48.051Z,804.38
2019-04-23T08:41:03.954Z,804.38
2019-04-23T08:43:08.957Z,815.63
2019-04-23T08:44:03.464Z,821.25
2019-04-23T08:44:57.032Z,832.50
2019-04-23T08:45:46.318Z,838.13
2019-04-23T08:46:56.809Z,843.75
2019-04-23T08:47:56.539Z,849.38
2019-04-23T08:49:03.307Z,849.38
2019-04-23T08:49:47.192Z,855.00
2019-04-23T08:53:00.176Z,860.63
2019-04-23T08:53:51.303Z,866.25
2019-04-23T08:54:51.968Z,866.25
2019-04-23T08:56:03.698Z,866.25
2019-04-23T08:56:55.157Z,860.63
2019-04-23T08:57:43.771Z,866.25
2019-04-23T08:58:49.032Z,860.63
2019-04-23T09:00:52.660Z,855.00
2019-04-23T09:02:07.174Z,843.75
2019-04-23T09:02:53.290Z,843.75
2019-04-23T09:03:47.796Z,838.13
2019-04-23T09:04:55.412Z,838.13
2019-04-23T09:05:55.988Z,843.75
2019-04-23T09:06:53.161Z,843.75
2019-04-23T09:09:10.424Z,843.75
2019-04-23T09:09:57.829Z,843.75
2019-04-23T09:10:55.948Z,832.50
2019-04-23T09:11:54.317Z,826.88
2019-04-23T09:12:58.749Z,815.63
2019-04-23T09:14:51.049Z,798.75
2019-04-23T09:15:49.929Z,793.13
2019-04-23T09:16:50.983Z,793.13
2019-04-23T09:18:47.220Z,793.13
2019-04-23T09:20:07.076Z,787.50
2019-04-23T09:20:41.143Z,787.50
2019-04-23T09:21:50.357Z,787.50
2019-04-23T09:22:42.191Z,793.13
2019-04-23T09:24:55.513Z,787.50
2019-04-23T09:26:51.679Z,787.50
2019-04-23T09:27:47.083Z,787.50
2019-04-23T09:28:51.886Z,781.88
2019-04-23T09:32:47.296Z,776.25
2019-04-23T09:35:48.704Z,770.63
2019-04-23T09:36:49.156Z,770.63
2019-04-23T09:38:52.516Z,759.38
2019-04-23T09:39:49.749Z,759.38
2019-04-23T09:41:04.026Z,759.38
2019-04-23T09:41:48.200Z,748.13
2019-04-23T09:43:00.624Z,748.13
2019-04-23T09:43:57.755Z,748.13
2019-04-23T09:45:51.993Z,742.50
2019-04-23T09:46:53.183Z,742.50
2019-04-23T09:47:50.496Z,731.25
2019-04-23T09:48:50.953Z,725.63
2019-04-23T09:49:50.175Z,731.25
2019-04-23T09:50:56.994Z,720.00
2019-04-23T09:51:59.373Z,714.38
2019-04-23T09:53:01.846Z,714.38
2019-04-23T09:53:50.401Z,708.75
2019-04-23T09:54:58.592Z,708.75
2019-04-23T09:55:41.924Z,697.50
2019-04-23T09:56:49.522Z,691.88
2019-04-23T09:57:55.495Z,686.25
2019-04-23T09:58:52.541Z,680.63
2019-04-23T09:59:53.057Z,680.63
2019-04-23T10:00:44.967Z,675.00
2019-04-23T10:01:40.950Z,675.00
2019-04-23T10:02:41.196Z,669.38
2019-04-23T10:03:39.037Z,680.63
2019-04-23T10:04:39.810Z,663.75
2019-04-23T10:05:30.964Z,663.75
2019-04-23T10:06:26.584Z,658.13
2019-04-23T10:07:34.860Z,652.50
2019-04-23T10:08:31.222Z,663.75
2019-04-23T10:09:23.869Z,658.13
2019-04-23T10:10:22.710Z,658.13
2019-04-23T10:11:22.368Z,652.50
2019-04-23T10:12:22.178Z,652.50
2019-04-23T10:13:22.118Z,652.50
2019-04-23T10:14:22.109Z,646.88
2019-04-23T10:15:26.721Z,646.88
2019-04-23T10:16:25.686Z,646.88
2019-04-23T10:17:22.284Z,646.88
2019-04-23T10:18:22.436Z,652.50
2019-04-23T10:19:22.591Z,652.50
2019-04-23T10:20:22.544Z,652.50
2019-04-23T10:21:23.626Z,652.50
2019-04-23T10:22:23.059Z,652.50
2019-04-23T10:23:23.194Z,652.50
2019-04-23T10:24:23.278Z,652.50
2019-04-23T10:25:22.826Z,646.88
2019-04-23T10:26:21.989Z,652.50
2019-04-23T10:27:23.275Z,652.50
2019-04-23T10:28:22.999Z,652.50
2019-04-23T10:29:23.598Z,646.88
2019-04-23T10:30:21.897Z,652.50
2019-04-23T10:31:22.897Z,652.50
2019-04-23T10:32:21.915Z,652.50
2019-04-23T10:33:23.417Z,652.50
2019-04-23T10:34:23.271Z,658.13
2019-04-23T10:35:33.852Z,658.13
2019-04-23T10:36:25.478Z,658.13
2019-04-23T10:37:34.224Z,663.75
2019-04-23T10:38:22.565Z,669.38
2019-04-23T10:39:26.305Z,675.00
2019-04-23T10:40:28.145Z,686.25
2019-04-23T10:41:22.535Z,691.88
2019-04-23T10:42:21.958Z,697.50
2019-04-23T10:43:22.638Z,708.75
2019-04-23T10:44:23.516Z,714.38
2019-04-23T10:45:34.873Z,725.63
2019-04-23T10:46:43.594Z,731.25
2019-04-23T10:47:59.451Z,736.88
2019-04-23T10:48:49.624Z,742.50
2019-04-23T10:49:53.524Z,753.75
2019-04-23T10:52:02.283Z,765.00
2019-04-23T10:52:53.711Z,776.25
2019-04-23T10:53:52.060Z,781.88
2019-04-23T10:54:45.153Z,787.50
2019-04-23T10:57:45.860Z,821.25
2019-04-23T10:58:47.524Z,821.25
2019-04-23T11:00:53.542Z,838.13
2019-04-23T11:01:56.165Z,849.38
2019-04-23T11:02:51.335Z,849.38
2019-04-23T11:05:59.022Z,849.38
2019-04-23T11:06:50.122Z,843.75
2019-04-23T11:07:47.222Z,838.13
2019-04-23T11:08:50.577Z,849.38
2019-04-23T11:09:55.605Z,855.00
2019-04-23T11:10:50.423Z,860.63
2019-04-23T11:11:56.635Z,866.25
2019-04-23T11:13:53.531Z,877.50
2019-04-23T11:18:56.653Z,900.00
2019-04-23T11:19:58.223Z,894.38
2019-04-23T11:21:58.226Z,900.00
2019-04-23T11:22:48.242Z,905.63
2019-04-23T11:24:12.702Z,911.25
2019-04-23T11:24:48.387Z,905.63
2019-04-23T11:25:44.831Z,911.25
2019-04-23T11:26:51.520Z,905.63
2019-04-23T11:27:59.753Z,911.25
2019-04-23T11:28:44.864Z,916.88
2019-04-23T11:29:48.593Z,922.50
2019-04-23T11:31:03.511Z,950.63
2019-04-23T11:31:57.109Z,950.63
2019-04-23T11:33:59.450Z,950.63
2019-04-23T11:36:06.260Z,956.25
2019-04-23T11:38:11.882Z,967.50
2019-04-23T11:38:56.163Z,973.13
2019-04-23T11:39:55.826Z,984.38
2019-04-23T11:40:42.166Z,995.63
2019-04-23T11:43:46.523Z,1029.38
2019-04-23T11:44:56.164Z,1040.63
2019-04-23T11:49:10.210Z,1068.75
2019-04-23T11:51:30.271Z,1068.75
2019-04-23T11:53:07.392Z,1080.00
2019-04-23T11:53:47.949Z,1085.63
2019-04-23T11:54:53.022Z,1091.25
2019-04-23T11:57:27.259Z,1085.63
2019-04-23T11:57:59.185Z,1080.00
2019-04-23T11:58:49.243Z,1085.63
2019-04-23T12:00:10.879Z,1096.88
2019-04-23T12:01:18.369Z,1096.88
2019-04-23T12:01:52.195Z,1102.50
2019-04-23T12:03:57.353Z,1102.50
2019-04-23T12:04:59.219Z,1108.13
2019-04-23T12:05:52.314Z,1119.38
2019-04-23T12:06:52.824Z,1130.63
2019-04-23T12:07:53.777Z,1130.63
2019-04-23T12:10:20.032Z,1141.88
2019-04-23T12:11:08.432Z,1141.88
2019-04-23T12:12:00.081Z,1153.13
2019-04-23T12:12:49.540Z,1153.13
2019-04-23T12:13:56.672Z,1170.00
2019-04-23T12:15:07.262Z,1175.63
2019-04-23T12:15:53.507Z,1192.50
2019-04-23T12:17:05.537Z,1198.13
2019-04-23T12:19:04.632Z,1220.63
2019-04-23T12:19:57.791Z,1237.50
2019-04-23T12:20:46.288Z,1248.75
2019-04-23T12:21:58.294Z,1260.00
2019-04-23T12:23:01.070Z,1254.38
2019-04-23T12:25:09.409Z,1260.00
2019-04-23T12:26:53.892Z,1265.63
2019-04-23T12:27:38.627Z,1271.25
2019-04-23T12:28:53.616Z,1276.88
2019-04-23T12:29:52.668Z,1271.25
2019-04-23T12:31:47.263Z,1293.75
2019-04-23T12:32:56.616Z,1305.00
2019-04-23T12:33:51.370Z,1310.63
2019-04-23T12:35:04.386Z,1321.88
2019-04-23T12:35:43.926Z,1333.13
2019-04-23T12:36:46.878Z,1355.63
2019-04-23T12:37:49.381Z,1361.25
2019-04-23T12:38:51.974Z,1372.50
2019-04-23T12:39:49.794Z,1383.75
2019-04-23T12:40:44.287Z,1395.00
2019-04-23T12:41:51.185Z,1411.88
2019-04-23T12:43:04.067Z,1440.00
2019-04-23T12:43:48.542Z,1468.13
2019-04-23T12:44:56.424Z,1485.00
2019-04-23T12:45:42.275Z,1507.50
2019-04-23T12:50:05.426Z,1597.50
2019-04-23T12:51:08.945Z,1625.63
2019-04-23T12:51:57.813Z,1648.13
2019-04-23T12:53:41.808Z,1670.63
2019-04-23T12:54:57.968Z,1681.88
2019-04-23T12:56:59.535Z,1693.13
2019-04-23T12:58:03.517Z,1698.75
2019-04-23T12:58:38.241Z,1698.75
2019-04-23T12:59:50.175Z,1704.38
2019-04-23T13:00:38.924Z,1704.38
2019-04-23T13:01:48.926Z,1698.75
2019-04-23T13:03:47.393Z,1704.38
2019-04-23T13:05:12.188Z,1715.63
2019-04-23T13:05:42.293Z,1726.88
2019-04-23T13:06:47.945Z,1738.13
2019-04-23T13:08:08.327Z,1732.50
2019-04-23T13:08:57.079Z,1755.00
2019-04-23T13:09:54.536Z,1771.88
2019-04-23T13:10:45.307Z,1805.63
2019-04-23T13:11:53.010Z,1929.38
2019-04-23T13:12:50.359Z,2688.75
2019-04-23T13:14:49.646Z,3189.38
2019-04-23T13:15:48.891Z,3121.88
2019-04-23T13:16:54.053Z,3060.00
2019-04-23T13:17:50.253Z,2925.00
2019-04-23T13:21:57.143Z,3020.63
2019-04-23T13:23:51.090Z,2947.50
2019-04-23T13:24:48.740Z,3020.63
2019-04-23T13:25:54.164Z,2902.50
2019-04-23T13:26:46.556Z,2953.13
2019-04-23T13:27:54.361Z,3054.38
2019-04-23T13:28:45.862Z,2874.38
2019-04-23T13:29:51.483Z,2851.88
2019-04-23T13:31:40.326Z,2716.88
2019-04-23T13:32:55.446Z,2722.50
2019-04-23T13:33:58.066Z,2610.00
2019-04-23T13:35:05.164Z,2401.88
2019-04-23T13:36:08.421Z,2351.25
2019-04-23T13:36:56.410Z,2430.00
2019-04-23T13:37:54.452Z,2458.13
2019-04-23T13:39:44.029Z,2396.25
2019-04-23T13:41:47.751Z,2340.00
2019-04-23T13:42:57.272Z,2306.25
2019-04-23T13:43:42.536Z,2278.13
2019-04-23T13:44:46.652Z,2210.63
2019-04-23T13:46:55.749Z,2160.00
2019-04-23T13:47:54.733Z,2160.00
2019-04-23T13:48:42.062Z,2058.75
2019-04-23T13:49:53.231Z,1985.63
2019-04-23T13:51:48.695Z,1800.00
2019-04-23T13:54:04.189Z,1653.75
2019-04-23T13:55:44.375Z,1575.00
2019-04-23T13:58:53.237Z,1535.63
2019-04-23T13:59:48.391Z,1541.25
2019-04-23T14:00:58.175Z,1541.25
2019-04-23T14:01:46.743Z,1535.63
2019-04-23T14:03:47.952Z,1541.25
2019-04-23T14:04:50.830Z,1541.25
2019-04-23T14:05:51.254Z,1541.25
2019-04-23T14:06:49.531Z,1541.25
2019-04-23T14:08:53.763Z,1558.13
2019-04-23T14:09:57.607Z,1569.38
2019-04-23T14:10:48.275Z,1586.25
2019-04-23T14:11:40.125Z,1591.88
2019-04-23T14:12:53.335Z,1591.88
2019-04-23T14:14:05.822Z,1642.50
2019-04-23T14:15:04.460Z,1648.13
2019-04-23T14:15:54.039Z,1625.63
2019-04-23T14:17:08.673Z,1636.88
2019-04-23T14:18:56.132Z,1800.00
2019-04-23T14:19:47.792Z,1867.50
2019-04-23T14:20:53.231Z,1890.00
2019-04-23T14:21:44.515Z,1845.00
2019-04-23T14:24:04.552Z,1760.63
2019-04-23T14:26:05.255Z,1783.13
2019-04-23T14:27:09.665Z,1788.75
2019-04-23T14:28:01.267Z,1777.50
2019-04-23T14:28:44.561Z,1777.50
2019-04-23T14:29:56.589Z,1766.25
2019-04-23T14:30:53.498Z,1794.38
2019-04-23T14:31:50.861Z,1783.13
2019-04-23T14:33:11.963Z,1766.25
2019-04-23T14:34:54.147Z,1766.25
2019-04-23T14:35:46.803Z,1777.50
2019-04-23T14:36:55.501Z,1710.00
2019-04-23T14:38:07.328Z,1648.13
2019-04-23T14:38:49.705Z,1530.00
2019-04-23T14:39:45.587Z,1473.75
2019-04-23T14:40:58.926Z,1423.13
2019-04-23T14:42:03.644Z,1440.00
2019-04-23T14:43:07.628Z,1473.75
2019-04-23T14:43:57.958Z,1558.13
2019-04-23T14:44:49.752Z,1642.50
2019-04-23T14:46:11.579Z,1710.00
2019-04-23T14:46:50.014Z,1777.50
2019-04-23T14:49:04.312Z,1873.13
2019-04-23T14:49:59.440Z,1890.00
2019-04-23T14:51:09.818Z,1906.88
2019-04-23T14:52:56.893Z,2025.00
2019-04-23T14:53:43.841Z,2041.88
2019-04-23T14:55:27.922Z,2041.88
2019-04-23T14:56:07.722Z,2013.75
2019-04-23T14:56:56.823Z,2036.25
2019-04-23T14:58:06.364Z,2081.25
2019-04-23T14:59:45.149Z,1974.38
2019-04-23T15:00:52.983Z,2013.75
2019-04-23T15:01:51.394Z,2013.75
2019-04-23T15:02:53.301Z,1991.25
2019-04-23T15:03:46.909Z,2036.25
2019-04-23T15:04:48.229Z,2070.00
2019-04-23T15:05:56.224Z,2103.75
2019-04-23T15:06:50.774Z,2160.00
2019-04-23T15:08:06.255Z,2255.63
2019-04-23T15:09:58.820Z,2283.75
2019-04-23T15:11:05.236Z,2278.13
2019-04-23T15:11:57.712Z,2283.75
2019-04-23T15:14:52.400Z,2396.25
2019-04-23T15:15:53.184Z,2458.13
2019-04-23T15:17:49.620Z,2446.88
2019-04-23T15:20:53.586Z,2503.13
2019-04-23T15:21:55.527Z,2435.63
2019-04-23T15:23:02.564Z,2345.63
2019-04-23T15:24:03.734Z,2351.25
2019-04-23T15:24:49.941Z,2328.75
2019-04-23T15:26:03.631Z,2334.38
2019-04-23T15:28:05.275Z,2311.88
2019-04-23T15:28:27.155Z,2328.75
2019-04-23T15:29:30.194Z,2311.88
2019-04-23T15:30:50.920Z,2289.38
2019-04-23T15:31:51.244Z,2345.63
2019-04-23T15:32:56.582Z,2300.63
2019-04-23T15:33:55.403Z,2227.50
2019-04-23T15:34:47.350Z,2165.63
2019-04-23T15:38:16.133Z,2266.88
2019-04-23T15:38:53.223Z,2216.25
2019-04-23T15:39:56.700Z,2238.75
2019-04-23T15:42:52.334Z,2047.50
2019-04-23T15:43:52.955Z,2047.50
2019-04-23T15:44:50.189Z,1996.88
2019-04-23T15:45:52.116Z,1968.75
2019-04-23T15:46:58.104Z,1985.63
2019-04-23T15:47:49.327Z,1985.63
2019-04-23T15:48:54.024Z,1980.00
2019-04-23T15:49:51.800Z,1974.38
2019-04-23T15:52:53.143Z,1980.00
2019-04-23T15:53:50.997Z,1951.88
2019-04-23T15:54:50.578Z,1935.00
2019-04-23T15:55:50.198Z,1912.50
2019-04-23T15:56:50.091Z,1895.63
2019-04-23T15:58:05.430Z,1884.38
2019-04-23T15:59:13.533Z,1878.75
2019-04-23T15:59:48.206Z,1906.88
2019-04-23T16:00:54.347Z,1906.88
2019-04-23T16:01:40.362Z,1839.38
2019-04-23T16:02:18.478Z,1783.13
2019-04-23T16:03:21.327Z,1777.50
2019-04-23T16:04:20.104Z,1749.38
2019-04-23T16:05:20.919Z,1704.38
2019-04-23T16:06:22.070Z,1659.38
2019-04-23T16:07:39.353Z,1614.38
2019-04-23T16:08:58.967Z,1580.63
2019-04-23T16:09:46.147Z,1586.25
2019-04-23T16:11:48.176Z,1569.38
2019-04-23T16:12:51.906Z,1552.50
2019-04-23T16:14:04.648Z,1552.50
2019-04-23T16:14:50.360Z,1563.75
2019-04-23T16:15:50.902Z,1558.13
2019-04-23T16:17:50.306Z,1563.75
2019-04-23T16:18:49.925Z,1586.25
2019-04-23T16:19:54.982Z,1575.00
2019-04-23T16:22:39.799Z,1490.63
2019-04-23T16:23:55.403Z,1479.38
2019-04-23T16:24:52.988Z,1501.88
2019-04-23T16:25:42.029Z,1507.50
2019-04-23T16:27:46.875Z,1496.25
2019-04-23T16:29:07.126Z,1473.75
2019-04-23T16:30:06.309Z,1468.13
2019-04-23T16:30:46.538Z,1445.63
2019-04-23T16:31:51.824Z,1440.00
2019-04-23T16:32:58.653Z,1434.38
2019-04-23T16:33:48.855Z,1400.63
2019-04-23T16:34:44.877Z,1400.63
2019-04-23T16:35:50.030Z,1411.88
2019-04-23T16:36:43.879Z,1395.00
2019-04-23T16:37:56.984Z,1350.00
2019-04-23T16:38:49.093Z,1305.00
2019-04-23T16:39:54.629Z,1237.50
2019-04-23T16:40:57.332Z,1136.25
2019-04-23T16:41:54.801Z,1029.38
2019-04-23T16:42:49.207Z,990.00
2019-04-23T16:43:49.258Z,1001.25
2019-04-23T16:45:00.938Z,1023.75
2019-04-23T16:46:52.956Z,1068.75
2019-04-23T16:47:52.312Z,1051.88
2019-04-23T16:49:51.147Z,967.50
2019-04-23T16:51:02.675Z,939.38
2019-04-23T16:51:47.976Z,922.50
2019-04-23T16:53:11.561Z,916.88
2019-04-23T16:53:44.737Z,911.25
2019-04-23T16:54:54.763Z,905.63
2019-04-23T16:55:50.046Z,883.13
2019-04-23T16:57:01.462Z,871.88
2019-04-23T16:58:57.930Z,810.00
2019-04-23T17:00:02.531Z,793.13
2019-04-23T17:01:53.969Z,759.38
2019-04-23T17:02:54.763Z,731.25
2019-04-23T17:03:52.598Z,714.38
2019-04-23T17:04:49.967Z,725.63
2019-04-23T17:05:50.853Z,731.25
2019-04-23T17:06:52.371Z,736.88
2019-04-23T17:07:53.720Z,736.88
2019-04-23T17:09:57.873Z,680.63
2019-04-23T17:11:53.090Z,607.50
2019-04-23T17:12:51.895Z,596.25
2019-04-23T17:13:46.242Z,585.00
2019-04-23T17:14:51.792Z,556.88
2019-04-23T17:15:53.346Z,534.38
2019-04-23T17:17:52.223Z,500.63
2019-04-23T17:18:52.247Z,483.75
2019-04-23T17:19:47.801Z,472.50
2019-04-23T17:20:47.588Z,455.63
2019-04-23T17:21:51.937Z,444.38
2019-04-23T17:22:46.739Z,433.13
2019-04-23T17:24:51.746Z,410.63
2019-04-23T17:25:48.858Z,399.38
2019-04-23T17:27:48.464Z,376.88
2019-04-23T17:28:49.901Z,371.25
2019-04-23T17:30:52.290Z,348.75
2019-04-23T17:31:38.137Z,337.50
2019-04-23T17:32:49.744Z,326.25
2019-04-23T17:34:47.370Z,309.38
2019-04-23T17:36:00.818Z,303.75
2019-04-23T17:36:50.158Z,292.50
2019-04-23T17:37:54.922Z,281.25
2019-04-23T17:39:35.974Z,275.63
2019-04-23T17:39:53.000Z,264.38
2019-04-23T17:40:54.047Z,258.75
2019-04-23T17:42:00.220Z,247.50
2019-04-23T17:42:44.002Z,241.88
2019-04-23T17:43:54.642Z,236.25
2019-04-23T17:45:01.999Z,230.63
2019-04-23T17:45:46.015Z,225.00
2019-04-23T17:46:56.329Z,213.75
2019-04-23T17:47:52.362Z,208.13
2019-04-23T17:48:44.168Z,202.50
2019-04-23T17:49:52.562Z,191.25
2019-04-23T17:50:52.791Z,185.63
2019-04-23T17:51:52.015Z,174.38
2019-04-23T17:52:52.980Z,168.75
2019-04-23T17:53:52.762Z,163.13
2019-04-23T17:54:48.460Z,157.50
2019-04-23T17:55:54.630Z,151.88
2019-04-23T17:56:54.354Z,146.25